Watertown, Ohio
Current Conditions -  °F | °C
As of 9:53 PM on Thursday 27 Nov 2014 (Local Time) from KPKB Reporting Station
Overcast Overcast  
Wind Chill: -5°   Ceiling: 2100
Heat Index: -1°   Visibility: 10mi
Dew Point: -4°   Wind: 8mph
Humidity: 76%   Direction: 270°W
Pressure: 30.32"   Gusts: NA
Location:  39.47°N, 81.63°W
Report Text: KPKB 280253Z 27007KT 10SM OVC021 M01/M04 A3032 RMK AO2 SNB18E37 SLP276 P0000 60000 T10061044 51008
Loading
Personal Weather Stations






























Interactive Weather Map New forecast layout! Learn more

10-Day Weather Forecast

Advertisements
Track Severe Weather on mobile